Time;durP1;ratioP1;P1;durP2;ratioP2;P2;SDS_P1;SDS_P2;PMS_P1;PMS_P2;Temp;Humidity;BMP_temperature;BMP_pressure;BME280_temperature;BME280_humidity;BME280_pressure;Samples;Min_cycle;Max_cycle;Signal;HPM_P1;HPM_P2
2021/06/30 00:00:05;;;;;;;30.98;16.45;;;;;;;;;;5081287;28;20051;-65
2021/06/30 00:02:31;;;;;;;25.27;16.40;;;;;;;;;;5075531;28;20076;-66
2021/06/30 00:04:57;;;;;;;30.98;16.25;;;;;;;;;;5079543;28;20385;-66
2021/06/30 00:07:24;;;;;;;26.35;16.73;;;;;;;;;;5077568;28;20036;-66
2021/06/30 00:09:50;;;;;;;31.63;15.93;;;;;;;;;;5075221;28;20524;-66
2021/06/30 00:12:16;;;;;;;34.63;17.00;;;;;;;;;;5076359;28;20271;-66
2021/06/30 00:14:42;;;;;;;28.30;17.08;;;;;;;;;;5071346;28;20176;-66
2021/06/30 00:17:09;;;;;;;28.85;16.30;;;;;;;;;;5072314;28;20098;-66
2021/06/30 00:19:35;;;;;;;27.40;16.13;;;;;;;;;;5070732;28;20230;-66
2021/06/30 00:22:02;;;;;;;26.45;16.55;;;;;;;;;;5077826;28;20032;-66
2021/06/30 00:24:28;;;;;;;28.05;16.08;;;;;;;;;;5075066;28;20458;-66
2021/06/30 00:26:54;;;;;;;30.35;18.25;;;;;;;;;;5086007;28;20600;-66
2021/06/30 00:29:20;;;;;;;29.85;16.20;;;;;;;;;;5069576;28;20098;-66
2021/06/30 00:31:47;;;;;;;32.53;18.25;;;;;;;;;;5080020;28;20047;-66
2021/06/30 00:34:13;;;;;;;28.95;17.08;;;;;;;;;;5073424;28;20041;-66
2021/06/30 00:36:49;;;;;;;27.98;16.95;;;;;;;;;;5076579;28;20036;-66
2021/06/30 00:39:16;;;;;;;32.03;17.60;;;;;;;;;;5070488;28;20087;-66
2021/06/30 00:41:42;;;;;;;32.55;17.80;;;;;;;;;;5084906;28;20548;-66
2021/06/30 00:44:09;;;;;;;30.30;17.65;;;;;;;;;;5077778;28;20450;-67
2021/06/30 00:46:35;;;;;;;30.67;18.63;;;;;;;;;;5081900;28;20051;-66
2021/06/30 00:49:02;;;;;;;34.80;17.42;;;;;;;;;;5081843;28;20052;-66
2021/06/30 00:51:28;;;;;;;29.02;18.10;;;;;;;;;;5067971;28;20519;-66
2021/06/30 00:53:55;;;;;;;28.48;18.73;;;;;;;;;;5083131;28;20047;-66
2021/06/30 00:56:24;;;;;;;29.05;18.23;;;;;;;;;;5073408;28;20037;-66
2021/06/30 00:58:55;;;;;;;32.38;19.13;;;;;;;;;;5074459;28;20024;-66
2021/06/30 01:01:23;;;;;;;34.45;19.63;;;;;;;;;;5075997;28;20045;-66
2021/06/30 01:03:50;;;;;;;32.35;18.73;;;;;;;;;;5076638;28;20098;-66
2021/06/30 01:06:16;;;;;;;31.73;18.70;;;;;;;;;;5072837;28;20075;-66
2021/06/30 01:08:43;;;;;;;37.95;20.52;;;;;;;;;;5082896;28;20127;-66
2021/06/30 01:11:09;;;;;;;34.42;20.30;;;;;;;;;;5073527;28;20044;-66
2021/06/30 01:13:36;;;;;;;38.20;20.45;;;;;;;;;;5079541;28;20040;-66
2021/06/30 01:16:03;;;;;;;33.80;20.33;;;;;;;;;;5071874;28;20055;-66
2021/06/30 01:18:30;;;;;;;39.60;20.55;;;;;;;;;;5073398;28;20044;-66
2021/06/30 01:20:57;;;;;;;45.08;22.25;;;;;;;;;;5074234;28;20033;-66
2021/06/30 01:23:24;;;;;;;48.60;23.25;;;;;;;;;;5075470;28;20424;-66
2021/06/30 01:25:50;;;;;;;45.35;24.25;;;;;;;;;;5067394;28;20489;-66
2021/06/30 01:28:17;;;;;;;47.33;24.55;;;;;;;;;;5084861;28;20041;-66
2021/06/30 01:30:44;;;;;;;43.20;21.95;;;;;;;;;;5077583;28;20189;-66
2021/06/30 01:33:11;;;;;;;41.10;23.08;;;;;;;;;;5076298;28;20032;-66
2021/06/30 01:35:37;;;;;;;40.33;22.48;;;;;;;;;;5086040;28;20087;-66
2021/06/30 01:38:03;;;;;;;45.65;22.33;;;;;;;;;;5079726;28;20159;-66
2021/06/30 01:40:30;;;;;;;48.72;23.13;;;;;;;;;;5080198;28;20411;-66
2021/06/30 01:42:57;;;;;;;44.33;22.10;;;;;;;;;;5077727;28;20369;-66
2021/06/30 01:45:23;;;;;;;35.55;21.02;;;;;;;;;;5086169;28;20372;-66
2021/06/30 01:47:50;;;;;;;43.42;21.60;;;;;;;;;;5071487;28;20511;-66
2021/06/30 01:50:16;;;;;;;41.38;20.52;;;;;;;;;;5080964;28;20037;-66
2021/06/30 01:52:43;;;;;;;43.67;20.05;;;;;;;;;;5074030;28;20036;-66
2021/06/30 01:55:10;;;;;;;31.40;17.85;;;;;;;;;;5083095;28;20382;-66
2021/06/30 01:57:45;;;;;;;38.65;18.30;;;;;;;;;;5071879;28;20115;-66
2021/06/30 02:00:13;;;;;;;50.72;19.85;;;;;;;;;;5078171;28;20458;-66
2021/06/30 02:02:39;;;;;;;46.15;19.33;;;;;;;;;;5073414;28;20039;-66
2021/06/30 02:05:10;;;;;;;39.40;19.17;;;;;;;;;;5079862;28;20047;-66
2021/06/30 02:07:43;;;;;;;40.15;19.15;;;;;;;;;;5075188;28;20036;-66
2021/06/30 02:10:10;;;;;;;47.40;19.35;;;;;;;;;;5081549;28;20682;-66
2021/06/30 02:12:37;;;;;;;40.83;17.92;;;;;;;;;;5074383;28;20115;-66
2021/06/30 02:15:05;;;;;;;43.78;18.75;;;;;;;;;;5082182;28;20484;-66
2021/06/30 02:17:38;;;;;;;33.70;19.15;;;;;;;;;;5073552;28;20094;-66
2021/06/30 02:20:05;;;;;;;47.88;20.67;;;;;;;;;;5075939;28;20028;-66
2021/06/30 02:22:32;;;;;;;37.15;18.65;;;;;;;;;;5074359;28;20109;-66
2021/06/30 02:24:58;;;;;;;32.13;18.40;;;;;;;;;;5080837;28;20048;-66
2021/06/30 02:27:25;;;;;;;31.00;16.60;;;;;;;;;;5079149;28;20036;-66
2021/06/30 02:29:52;;;;;;;38.58;16.75;;;;;;;;;;5075470;28;20713;-66
2021/06/30 02:32:18;;;;;;;28.85;17.02;;;;;;;;;;5079412;28;20520;-66
2021/06/30 02:34:44;;;;;;;26.65;15.63;;;;;;;;;;5075134;28;20066;-66
2021/06/30 02:37:10;;;;;;;33.58;16.33;;;;;;;;;;5078533;28;20079;-66
2021/06/30 02:39:36;;;;;;;30.08;16.38;;;;;;;;;;5073303;28;20083;-66
2021/06/30 02:42:03;;;;;;;24.80;15.63;;;;;;;;;;5076615;28;20040;-66
2021/06/30 02:44:29;;;;;;;22.73;14.98;;;;;;;;;;5072177;28;20035;-66
2021/06/30 02:46:55;;;;;;;25.80;14.00;;;;;;;;;;5079349;28;20036;-66
2021/06/30 02:49:21;;;;;;;26.90;14.18;;;;;;;;;;5072324;28;20404;-66
2021/06/30 02:51:47;;;;;;;24.95;14.27;;;;;;;;;;5077756;28;20417;-66
2021/06/30 02:54:13;;;;;;;29.35;14.10;;;;;;;;;;5069760;28;20055;-66
2021/06/30 02:56:40;;;;;;;18.02;12.20;;;;;;;;;;5080437;28;20060;-66
2021/06/30 02:59:06;;;;;;;18.23;11.02;;;;;;;;;;5076935;28;20546;-66
2021/06/30 03:01:32;;;;;;;18.98;10.88;;;;;;;;;;5077291;28;20488;-66
2021/06/30 03:04:00;;;;;;;24.88;12.13;;;;;;;;;;5079512;28;20067;-66
2021/06/30 03:06:26;;;;;;;18.02;11.32;;;;;;;;;;5073001;28;20407;-66
2021/06/30 03:08:52;;;;;;;18.73;10.95;;;;;;;;;;5080166;28;20047;-66
2021/06/30 03:11:19;;;;;;;19.10;11.10;;;;;;;;;;5069097;28;20488;-66
2021/06/30 03:13:45;;;;;;;18.73;10.80;;;;;;;;;;5074203;28;20044;-66
2021/06/30 03:16:14;;;;;;;19.75;11.73;;;;;;;;;;5072785;28;20059;-66
2021/06/30 03:18:40;;;;;;;17.52;10.38;;;;;;;;;;5079578;28;20445;-66
2021/06/30 03:21:06;;;;;;;15.82;10.90;;;;;;;;;;5073289;28;20150;-66
2021/06/30 03:23:32;;;;;;;18.73;10.73;;;;;;;;;;5076014;28;20115;-66
2021/06/30 03:25:58;;;;;;;15.45;10.60;;;;;;;;;;5071455;28;20099;-66
2021/06/30 03:28:24;;;;;;;16.42;10.23;;;;;;;;;;5079606;28;20496;-66
2021/06/30 03:30:50;;;;;;;19.98;10.50;;;;;;;;;;5072252;28;20040;-66
2021/06/30 03:33:17;;;;;;;19.98;11.35;;;;;;;;;;5076105;28;20322;-66
2021/06/30 03:35:43;;;;;;;18.83;10.57;;;;;;;;;;5075680;28;20500;-66
2021/06/30 03:38:09;;;;;;;16.40;10.65;;;;;;;;;;5075394;28;20082;-66
2021/06/30 03:40:35;;;;;;;19.98;11.00;;;;;;;;;;5075671;28;20471;-66
2021/06/30 03:43:01;;;;;;;19.08;10.93;;;;;;;;;;5077417;28;20082;-66
2021/06/30 03:45:27;;;;;;;16.85;10.73;;;;;;;;;;5081547;28;20394;-66
2021/06/30 03:47:53;;;;;;;17.13;10.80;;;;;;;;;;5068243;28;20044;-66
2021/06/30 03:50:20;;;;;;;15.05;10.85;;;;;;;;;;5078224;28;20089;-66
2021/06/30 03:52:46;;;;;;;14.60;11.30;;;;;;;;;;5079647;28;20052;-66
2021/06/30 03:55:12;;;;;;;19.92;11.77;;;;;;;;;;5078894;28;20477;-66
2021/06/30 03:57:38;;;;;;;21.38;12.60;;;;;;;;;;5071064;28;20047;-66
2021/06/30 04:00:05;;;;;;;15.45;11.40;;;;;;;;;;5076854;28;20068;-66
2021/06/30 04:02:32;;;;;;;19.73;11.77;;;;;;;;;;5077417;28;20060;-66
2021/06/30 04:04:58;;;;;;;18.83;11.73;;;;;;;;;;5079831;28;20135;-66
2021/06/30 04:07:24;;;;;;;19.60;12.52;;;;;;;;;;5069998;28;20064;-66
2021/06/30 04:09:50;;;;;;;21.10;12.57;;;;;;;;;;5074066;28;20040;-66
2021/06/30 04:12:16;;;;;;;18.90;13.05;;;;;;;;;;5073461;28;20406;-66
2021/06/30 04:14:43;;;;;;;21.63;12.77;;;;;;;;;;5079143;28;20040;-66
2021/06/30 04:17:09;;;;;;;22.88;12.90;;;;;;;;;;5076423;28;20444;-66
2021/06/30 04:19:35;;;;;;;22.02;12.82;;;;;;;;;;5066320;28;20119;-66
2021/06/30 04:22:01;;;;;;;18.23;12.57;;;;;;;;;;5078517;28;20119;-66
2021/06/30 04:24:27;;;;;;;22.27;13.20;;;;;;;;;;5073345;28;20036;-66
2021/06/30 04:26:53;;;;;;;21.02;13.02;;;;;;;;;;5073834;28;20124;-66
2021/06/30 04:29:19;;;;;;;19.33;12.02;;;;;;;;;;5075237;28;20032;-66
2021/06/30 04:31:47;;;;;;;22.48;13.40;;;;;;;;;;5072825;28;20175;-66
2021/06/30 04:34:13;;;;;;;75.78;64.95;;;;;;;;;;5070904;28;20044;-66
2021/06/30 04:36:39;;;;;;;21.65;13.32;;;;;;;;;;5071831;28;20108;-66
2021/06/30 04:39:05;;;;;;;22.45;14.00;;;;;;;;;;5074536;28;20231;-66
2021/06/30 04:41:32;;;;;;;21.80;13.57;;;;;;;;;;5083666;28;20561;-66
2021/06/30 04:43:59;;;;;;;20.08;13.57;;;;;;;;;;5077860;28;20089;-66
2021/06/30 04:46:25;;;;;;;26.88;13.63;;;;;;;;;;5072092;28;20519;-66
2021/06/30 04:48:51;;;;;;;25.98;15.43;;;;;;;;;;5074087;28;20100;-66
2021/06/30 04:51:17;;;;;;;23.45;14.00;;;;;;;;;;5075630;28;20064;-66
2021/06/30 04:53:46;;;;;;;25.52;13.25;;;;;;;;;;5068010;28;20079;-66
2021/06/30 04:56:12;;;;;;;23.10;14.10;;;;;;;;;;5087213;28;20036;-66
2021/06/30 04:58:38;;;;;;;25.35;14.48;;;;;;;;;;5078931;28;20045;-66
2021/06/30 05:01:04;;;;;;;22.70;13.48;;;;;;;;;;5072352;28;20464;-66
2021/06/30 05:03:30;;;;;;;25.38;14.60;;;;;;;;;;5071494;28;20044;-66
2021/06/30 05:05:57;;;;;;;24.70;12.90;;;;;;;;;;5066456;28;20045;-66
2021/06/30 05:08:23;;;;;;;31.50;16.88;;;;;;;;;;5073828;28;20115;-66
2021/06/30 05:10:50;;;;;;;18.95;13.55;;;;;;;;;;5070150;28;20036;-66
2021/06/30 05:13:17;;;;;;;23.80;14.68;;;;;;;;;;5077311;28;20076;-66
2021/06/30 05:15:44;;;;;;;24.67;13.73;;;;;;;;;;5080066;28;20075;-66
2021/06/30 05:18:10;;;;;;;26.85;13.85;;;;;;;;;;5083015;28;20036;-66
2021/06/30 05:20:36;;;;;;;23.88;14.25;;;;;;;;;;5069529;28;20090;-66
2021/06/30 05:23:02;;;;;;;24.70;14.27;;;;;;;;;;5081596;28;20057;-66
2021/06/30 05:25:29;;;;;;;28.50;15.43;;;;;;;;;;5075437;28;20130;-66
2021/06/30 05:27:55;;;;;;;21.75;15.05;;;;;;;;;;5085905;28;20097;-66
2021/06/30 05:30:21;;;;;;;25.50;14.73;;;;;;;;;;5068884;28;20497;-66
2021/06/30 05:32:47;;;;;;;25.65;16.00;;;;;;;;;;5076227;28;20039;-66
2021/06/30 05:35:13;;;;;;;19.02;13.60;;;;;;;;;;5075871;28;20119;-66
2021/06/30 05:37:40;;;;;;;22.70;13.50;;;;;;;;;;5080012;28;20043;-66
2021/06/30 05:40:06;;;;;;;27.52;14.57;;;;;;;;;;5074760;28;20048;-66
2021/06/30 05:42:33;;;;;;;22.95;13.88;;;;;;;;;;5070857;28;20080;-66
2021/06/30 05:44:59;;;;;;;29.25;13.65;;;;;;;;;;5081339;28;20042;-66
2021/06/30 05:47:25;;;;;;;30.52;13.25;;;;;;;;;;5074905;28;20044;-66
2021/06/30 05:49:51;;;;;;;23.65;14.13;;;;;;;;;;5075009;28;20045;-65
2021/06/30 05:52:17;;;;;;;21.35;13.48;;;;;;;;;;5071668;28;20040;-66
2021/06/30 05:54:43;;;;;;;24.35;11.80;;;;;;;;;;5077545;28;20055;-66
2021/06/30 05:57:10;;;;;;;20.75;11.95;;;;;;;;;;5076813;28;20352;-66
2021/06/30 05:59:36;;;;;;;21.77;12.07;;;;;;;;;;5088276;28;20107;-65
2021/06/30 06:02:02;;;;;;;26.02;12.82;;;;;;;;;;5071608;28;20072;-66
2021/06/30 06:04:28;;;;;;;22.48;12.10;;;;;;;;;;5077445;28;20146;-66
2021/06/30 06:06:54;;;;;;;49.70;35.20;;;;;;;;;;5075222;28;20050;-66
2021/06/30 06:09:21;;;;;;;29.45;12.45;;;;;;;;;;5077665;28;20453;-66
2021/06/30 06:11:47;;;;;;;24.08;11.20;;;;;;;;;;5070499;28;20473;-66
2021/06/30 06:14:13;;;;;;;21.55;11.60;;;;;;;;;;5076080;28;20297;-66
2021/06/30 06:16:40;;;;;;;26.75;12.55;;;;;;;;;;5083272;28;20071;-66
2021/06/30 06:19:07;;;;;;;23.67;11.30;;;;;;;;;;5078968;28;20115;-66
2021/06/30 06:21:33;;;;;;;24.10;11.52;;;;;;;;;;5086622;28;20041;-66
2021/06/30 06:23:59;;;;;;;23.70;11.95;;;;;;;;;;5069301;28;20040;-66
2021/06/30 06:26:25;;;;;;;26.23;12.30;;;;;;;;;;5075613;28;20040;-66
2021/06/30 06:28:52;;;;;;;30.85;11.95;;;;;;;;;;5069900;28;20483;-66
2021/06/30 06:31:19;;;;;;;25.65;11.98;;;;;;;;;;5083267;28;20111;-66
2021/06/30 06:33:45;;;;;;;23.13;11.50;;;;;;;;;;5072660;28;20354;-66
2021/06/30 06:36:11;;;;;;;25.35;12.82;;;;;;;;;;5084501;28;20032;-66
2021/06/30 06:38:38;;;;;;;23.38;13.55;;;;;;;;;;5077386;28;20047;-66
2021/06/30 06:41:05;;;;;;;24.00;12.68;;;;;;;;;;5073150;28;20051;-66
2021/06/30 06:43:33;;;;;;;27.65;13.07;;;;;;;;;;5071101;28;20086;-66
2021/06/30 06:46:04;;;;;;;30.63;13.02;;;;;;;;;;5078755;28;20048;-65
2021/06/30 06:48:30;;;;;;;28.35;12.25;;;;;;;;;;5076933;28;20052;-65
2021/06/30 06:50:56;;;;;;;23.45;13.27;;;;;;;;;;5071820;28;20111;-65
2021/06/30 06:53:22;;;;;;;28.65;13.52;;;;;;;;;;5071265;28;20032;-66
2021/06/30 06:55:50;;;;;;;25.33;13.00;;;;;;;;;;5077671;28;20040;-65
2021/06/30 06:58:16;;;;;;;23.67;12.43;;;;;;;;;;5077229;28;20032;-65
2021/06/30 07:00:42;;;;;;;26.73;12.50;;;;;;;;;;5076887;28;20060;-65
2021/06/30 07:03:08;;;;;;;26.17;12.55;;;;;;;;;;5075810;28;20043;-65
2021/06/30 07:05:34;;;;;;;27.30;12.95;;;;;;;;;;5069026;28;20041;-65
2021/06/30 07:08:01;;;;;;;28.65;13.43;;;;;;;;;;5072466;28;20436;-65
2021/06/30 07:10:27;;;;;;;26.75;12.90;;;;;;;;;;5070421;28;20416;-65
2021/06/30 07:12:53;;;;;;;27.55;14.45;;;;;;;;;;5081882;28;20466;-65
2021/06/30 07:15:20;;;;;;;24.55;12.20;;;;;;;;;;5078915;28;20495;-65
2021/06/30 07:17:46;;;;;;;28.45;13.88;;;;;;;;;;5074331;28;20419;-65
2021/06/30 07:20:12;;;;;;;24.88;12.80;;;;;;;;;;5071868;28;20112;-65
2021/06/30 07:22:38;;;;;;;31.80;13.43;;;;;;;;;;5075723;28;20040;-65
2021/06/30 07:25:05;;;;;;;26.98;12.82;;;;;;;;;;5069932;28;20052;-65
2021/06/30 07:27:31;;;;;;;24.63;12.55;;;;;;;;;;5085851;28;20050;-65
2021/06/30 07:29:57;;;;;;;24.65;16.17;;;;;;;;;;5078821;28;20044;-65
2021/06/30 07:32:23;;;;;;;32.45;13.27;;;;;;;;;;5076727;28;20051;-65
2021/06/30 07:34:49;;;;;;;26.85;13.18;;;;;;;;;;5074809;28;20123;-65
2021/06/30 07:37:15;;;;;;;32.00;13.55;;;;;;;;;;5073127;28;20086;-65
2021/06/30 07:39:41;;;;;;;30.33;12.05;;;;;;;;;;5076160;28;20386;-65
2021/06/30 07:42:08;;;;;;;27.02;11.95;;;;;;;;;;5078859;28;20165;-65
2021/06/30 07:44:34;;;;;;;29.95;12.50;;;;;;;;;;5078940;28;20044;-65
2021/06/30 07:47:00;;;;;;;27.08;11.82;;;;;;;;;;5069006;28;20055;-65
2021/06/30 07:49:26;;;;;;;23.10;12.15;;;;;;;;;;5075395;28;20095;-65
2021/06/30 07:51:52;;;;;;;28.35;12.05;;;;;;;;;;5074835;28;20481;-65
2021/06/30 07:54:19;;;;;;;23.13;12.10;;;;;;;;;;5075787;28;20047;-65
2021/06/30 07:56:45;;;;;;;25.20;11.55;;;;;;;;;;5069320;28;20040;-65
2021/06/30 07:59:12;;;;;;;26.98;11.75;;;;;;;;;;5073142;28;20096;-65
2021/06/30 08:01:38;;;;;;;20.70;12.60;;;;;;;;;;5066582;28;20044;-65
2021/06/30 08:04:06;;;;;;;23.48;11.40;;;;;;;;;;5084579;28;20482;-65
2021/06/30 08:06:32;;;;;;;20.23;10.77;;;;;;;;;;5079319;28;20460;-65
2021/06/30 08:08:58;;;;;;;26.17;11.00;;;;;;;;;;5078868;28;20476;-65
2021/06/30 08:11:25;;;;;;;27.23;11.23;;;;;;;;;;5071517;28;20495;-65
2021/06/30 08:13:52;;;;;;;21.92;11.85;;;;;;;;;;5076502;28;20094;-65
2021/06/30 08:16:19;;;;;;;21.08;11.23;;;;;;;;;;5076385;28;21568;-65
2021/06/30 08:18:46;;;;;;;23.27;11.25;;;;;;;;;;5074014;28;20032;-65
2021/06/30 08:21:12;;;;;;;22.60;10.93;;;;;;;;;;5075444;28;20400;-65
2021/06/30 08:23:38;;;;;;;24.55;10.68;;;;;;;;;;5071327;28;20052;-65
2021/06/30 08:26:06;;;;;;;23.15;11.38;;;;;;;;;;5076136;28;20457;-65
2021/06/30 08:28:32;;;;;;;25.83;11.43;;;;;;;;;;5068062;28;20120;-65
2021/06/30 08:30:59;;;;;;;17.25;10.45;;;;;;;;;;5074930;28;20044;-65
2021/06/30 08:33:25;;;;;;;18.40;9.88;;;;;;;;;;5068140;28;20040;-65
2021/06/30 08:35:51;;;;;;;19.25;9.75;;;;;;;;;;5080153;28;20052;-65
2021/06/30 08:38:17;;;;;;;17.08;9.13;;;;;;;;;;5072334;28;20060;-65
2021/06/30 08:40:43;;;;;;;17.08;8.85;;;;;;;;;;5073622;28;20578;-65
2021/06/30 08:43:10;;;;;;;19.40;9.38;;;;;;;;;;5068046;28;20461;-65
2021/06/30 08:45:36;;;;;;;17.13;9.50;;;;;;;;;;5080743;28;20048;-65
2021/06/30 08:48:02;;;;;;;16.17;10.38;;;;;;;;;;5072318;28;20444;-65
2021/06/30 08:50:29;;;;;;;19.98;10.05;;;;;;;;;;5080444;28;20446;-65
2021/06/30 08:52:56;;;;;;;13.52;8.80;;;;;;;;;;5083628;28;20115;-65
2021/06/30 08:55:22;;;;;;;22.50;9.52;;;;;;;;;;5074865;28;20051;-65
2021/06/30 08:57:49;;;;;;;17.30;10.23;;;;;;;;;;5084253;28;20039;-65
2021/06/30 09:00:16;;;;;;;20.05;9.80;;;;;;;;;;5081079;28;20120;-65
2021/06/30 09:02:47;;;;;;;21.48;10.32;;;;;;;;;;5074503;28;20396;-65
2021/06/30 09:07:51;;;;;;;15.82;9.00;;;;;;;;;;5078868;28;20044;-65
2021/06/30 09:10:29;;;;;;;16.98;8.95;;;;;;;;;;5077043;28;20071;-65
2021/06/30 09:12:55;;;;;;;16.63;8.68;;;;;;;;;;5079614;28;20044;-65
2021/06/30 09:15:35;;;;;;;12.20;7.47;;;;;;;;;;5072510;28;20048;-65
2021/06/30 09:18:18;;;;;;;15.50;7.75;;;;;;;;;;5076892;28;20075;-65
2021/06/30 09:20:46;;;;;;;13.23;7.75;;;;;;;;;;5074312;28;20503;-65
2021/06/30 09:23:12;;;;;;;11.45;7.80;;;;;;;;;;5080002;28;20637;-65
2021/06/30 09:25:40;;;;;;;11.70;7.38;;;;;;;;;;5081937;28;20542;-65
2021/06/30 09:28:21;;;;;;;11.60;7.13;;;;;;;;;;5088384;28;20032;-65
2021/06/30 09:31:01;;;;;;;12.40;6.68;;;;;;;;;;5079556;28;20477;-65
2021/06/30 09:33:46;;;;;;;11.95;6.40;;;;;;;;;;5085680;28;20123;-65
2021/06/30 09:36:15;;;;;;;13.68;5.03;;;;;;;;;;5080347;28;20036;-65
2021/06/30 09:38:45;;;;;;;10.48;5.65;;;;;;;;;;5086531;28;20032;-65
2021/06/30 09:41:25;;;;;;;13.48;6.05;;;;;;;;;;5077818;28;20740;-65
2021/06/30 09:44:00;;;;;;;11.07;5.45;;;;;;;;;;5084502;28;20131;-65
2021/06/30 09:46:26;;;;;;;8.48;5.75;;;;;;;;;;5080970;28;20055;-65
2021/06/30 09:48:56;;;;;;;8.75;5.38;;;;;;;;;;5086241;28;20043;-65
2021/06/30 09:51:23;;;;;;;11.48;5.30;;;;;;;;;;5072662;28;20032;-65
2021/06/30 09:53:49;;;;;;;10.50;5.05;;;;;;;;;;5082719;28;20040;-65
2021/06/30 09:56:36;;;;;;;10.75;5.13;;;;;;;;;;5072711;28;20052;-65
2021/06/30 09:59:14;;;;;;;9.98;4.75;;;;;;;;;;5082717;28;20056;-65
2021/06/30 10:01:41;;;;;;;11.18;5.10;;;;;;;;;;5079723;28;20127;-65
2021/06/30 10:04:09;;;;;;;10.15;5.05;;;;;;;;;;5085846;28;20139;-65
2021/06/30 10:06:36;;;;;;;9.65;4.70;;;;;;;;;;5068869;28;20048;-65
2021/06/30 10:09:04;;;;;;;8.68;4.60;;;;;;;;;;5077140;28;20127;-65
2021/06/30 10:11:31;;;;;;;7.65;4.35;;;;;;;;;;5075732;28;20502;-65
2021/06/30 10:13:57;;;;;;;6.25;4.35;;;;;;;;;;5087743;28;20500;-65
2021/06/30 10:16:24;;;;;;;8.80;4.55;;;;;;;;;;5068085;28;20036;-65
2021/06/30 10:18:55;;;;;;;6.63;4.13;;;;;;;;;;5075556;28;20044;-65
2021/06/30 10:21:22;;;;;;;9.38;4.25;;;;;;;;;;5072601;28;20043;-65
2021/06/30 10:23:49;;;;;;;7.57;4.68;;;;;;;;;;5073923;28;20115;-65
2021/06/30 10:26:16;;;;;;;9.32;4.97;;;;;;;;;;5089313;28;20040;-65
2021/06/30 10:28:43;;;;;;;8.07;4.53;;;;;;;;;;5070522;28;20053;-65
2021/06/30 10:31:09;;;;;;;8.05;4.20;;;;;;;;;;5077762;28;20038;-65
2021/06/30 10:33:41;;;;;;;7.07;4.55;;;;;;;;;;5067278;28;20058;-65
2021/06/30 10:36:10;;;;;;;7.28;4.38;;;;;;;;;;5079922;28;20480;-65
2021/06/30 10:38:55;;;;;;;6.97;4.68;;;;;;;;;;5070481;28;20037;-65
2021/06/30 10:41:41;;;;;;;6.20;3.47;;;;;;;;;;5076886;28;20060;-64
2021/06/30 10:44:10;;;;;;;4.63;3.38;;;;;;;;;;5079110;28;20044;-64
2021/06/30 10:46:36;;;;;;;5.13;2.65;;;;;;;;;;5072217;28;20053;-64
2021/06/30 10:49:15;;;;;;;5.15;3.33;;;;;;;;;;5069364;28;20429;-64
2021/06/30 10:51:42;;;;;;;4.95;2.92;;;;;;;;;;5076145;28;20054;-64
2021/06/30 10:54:27;;;;;;;5.22;3.42;;;;;;;;;;5072642;28;20066;-65
2021/06/30 10:57:12;;;;;;;6.47;3.80;;;;;;;;;;5075985;28;20279;-65
2021/06/30 10:59:38;;;;;;;;;;;;;;;;;;5070703;28;20181;-65
2021/06/30 11:02:14;;;;;;;4.60;3.80;;;;;;;;;;5076008;28;20421;-65
2021/06/30 11:04:40;;;;;;;4.38;3.83;;;;;;;;;;5070615;28;20036;-65
2021/06/30 11:07:26;;;;;;;5.60;4.07;;;;;;;;;;5079793;28;20048;-64
2021/06/30 11:09:52;;;;;;;6.45;4.22;;;;;;;;;;5058582;28;20139;-64
2021/06/30 11:12:19;;;;;;;4.85;3.40;;;;;;;;;;5074949;28;20040;-64
2021/06/30 11:14:45;;;;;;;5.68;4.82;;;;;;;;;;5071923;28;20396;-65
2021/06/30 11:17:12;;;;;;;5.90;3.53;;;;;;;;;;5071750;28;20527;-65
2021/06/30 11:19:39;;;;;;;6.13;3.72;;;;;;;;;;5072341;28;20545;-65
2021/06/30 11:22:08;;;;;;;4.78;3.38;;;;;;;;;;5076464;28;20102;-65
2021/06/30 11:24:44;;;;;;;7.65;4.13;;;;;;;;;;5068011;28;20047;-65
2021/06/30 11:27:18;;;;;;;5.68;3.65;;;;;;;;;;5074140;28;20467;-65
2021/06/30 11:29:55;;;;;;;5.45;3.63;;;;;;;;;;5080895;28;20131;-65
2021/06/30 11:32:39;;;;;;;6.20;4.00;;;;;;;;;;5077026;28;20036;-65
2021/06/30 11:35:11;;;;;;;5.45;3.00;;;;;;;;;;5069139;28;20064;-65
2021/06/30 11:37:38;;;;;;;7.07;3.38;;;;;;;;;;5071224;28;20051;-65
2021/06/30 11:40:10;;;;;;;6.40;3.17;;;;;;;;;;5075430;28;20035;-65
2021/06/30 11:42:39;;;;;;;5.15;3.20;;;;;;;;;;5074382;28;20404;-65
2021/06/30 11:45:18;;;;;;;5.70;2.92;;;;;;;;;;5069907;28;20067;-65
2021/06/30 11:47:46;;;;;;;7.70;3.80;;;;;;;;;;5085466;28;20033;-65
2021/06/30 11:50:17;;;;;;;5.68;3.50;;;;;;;;;;5068523;28;20272;-65
2021/06/30 11:52:44;;;;;;;6.35;3.28;;;;;;;;;;5074998;28;20046;-66
2021/06/30 11:55:11;;;;;;;9.25;3.80;;;;;;;;;;5069389;28;20040;-66
2021/06/30 11:57:57;;;;;;;4.50;3.30;;;;;;;;;;5084683;28;20437;-66
2021/06/30 12:00:24;;;;;;;7.40;4.32;;;;;;;;;;5067966;28;20039;-66
2021/06/30 12:02:50;;;;;;;10.70;6.43;;;;;;;;;;5073160;28;20412;-66
2021/06/30 12:05:17;;;;;;;9.63;5.07;;;;;;;;;;5072769;28;20056;-67
2021/06/30 12:07:44;;;;;;;10.60;5.60;;;;;;;;;;5084491;28;20502;-67
2021/06/30 12:10:11;;;;;;;12.10;6.47;;;;;;;;;;5083039;28;20523;-66
2021/06/30 12:12:37;;;;;;;14.35;8.18;;;;;;;;;;5072136;28;20102;-66
2021/06/30 12:15:04;;;;;;;11.15;6.50;;;;;;;;;;5074863;28;20040;-67
2021/06/30 12:17:31;;;;;;;12.73;7.53;;;;;;;;;;5064250;28;20049;-67
2021/06/30 12:20:01;;;;;;;13.05;6.93;;;;;;;;;;5074796;28;20064;-66
2021/06/30 12:22:32;;;;;;;10.05;6.63;;;;;;;;;;5069826;28;20044;-66
2021/06/30 12:25:04;;;;;;;10.93;6.72;;;;;;;;;;5079094;28;20467;-66
2021/06/30 12:27:33;;;;;;;11.13;6.70;;;;;;;;;;5079254;28;20043;-67
2021/06/30 12:30:07;;;;;;;8.75;6.28;;;;;;;;;;5076436;28;20033;-67
2021/06/30 12:32:35;;;;;;;10.60;6.88;;;;;;;;;;5072645;28;20048;-66
2021/06/30 12:35:03;;;;;;;9.45;5.72;;;;;;;;;;5072439;28;20082;-67
2021/06/30 12:37:29;;;;;;;11.27;6.40;;;;;;;;;;5071186;28;20565;-67
2021/06/30 12:39:59;;;;;;;10.55;5.57;;;;;;;;;;5077371;28;20272;-67
2021/06/30 12:42:43;;;;;;;11.73;5.72;;;;;;;;;;5073687;28;20063;-67
2021/06/30 12:45:11;;;;;;;11.32;6.57;;;;;;;;;;5084780;28;20093;-67
2021/06/30 12:47:39;;;;;;;12.63;6.53;;;;;;;;;;5068259;28;20032;-67
2021/06/30 12:50:07;;;;;;;12.88;6.50;;;;;;;;;;5083965;28;20039;-67
2021/06/30 12:52:33;;;;;;;11.23;7.30;;;;;;;;;;5076819;28;20029;-67
2021/06/30 12:55:04;;;;;;;11.55;7.03;;;;;;;;;;5075837;28;20048;-67
2021/06/30 12:57:30;;;;;;;11.38;6.78;;;;;;;;;;5068435;28;20044;-67
2021/06/30 13:00:08;;;;;;;13.10;6.03;;;;;;;;;;5081280;28;20032;-67
2021/06/30 13:02:34;;;;;;;10.95;6.97;;;;;;;;;;5075062;28;20033;-67
2021/06/30 13:05:19;;;;;;;9.23;6.38;;;;;;;;;;5076490;28;20045;-67
2021/06/30 13:07:45;;;;;;;;;;;;;;;;;;5068438;28;20052;-68
2021/06/30 13:10:12;;;;;;;12.38;7.50;;;;;;;;;;5083958;28;19916;-68
2021/06/30 13:12:38;;;;;;;10.18;7.70;;;;;;;;;;5074185;28;20407;-68
2021/06/30 13:15:04;;;;;;;12.52;8.68;;;;;;;;;;5064054;28;20060;-68
2021/06/30 13:17:31;;;;;;;13.85;8.43;;;;;;;;;;5074037;28;20048;-68
2021/06/30 13:19:57;;;;;;;11.63;8.20;;;;;;;;;;5066721;28;20044;-68
2021/06/30 13:22:33;;;;;;;8.98;7.80;;;;;;;;;;5082537;28;20090;-68
2021/06/30 13:25:10;;;;;;;10.43;7.60;;;;;;;;;;5071123;28;20392;-67
2021/06/30 13:35:51;;;;;;;;;;;;;;;;;;5071609;28;20025;-67
2021/06/30 13:38:22;;;;;;;11.02;8.15;;;;;;;;;;5084351;28;19920;-67
2021/06/30 13:40:50;;;;;;;7.03;4.75;;;;;;;;;;5075158;28;20036;-66
2021/06/30 13:43:16;;;;;;;6.43;4.65;;;;;;;;;;5085999;28;20377;-65
2021/06/30 13:45:44;;;;;;;7.30;5.28;;;;;;;;;;5075234;28;20036;-65
2021/06/30 13:48:11;;;;;;;8.07;5.50;;;;;;;;;;5081844;28;20045;-65
2021/06/30 13:50:49;;;;;;;8.80;6.40;;;;;;;;;;5073129;28;20049;-65
2021/06/30 13:53:16;;;;;;;8.85;6.85;;;;;;;;;;5078492;28;20384;-65
2021/06/30 13:55:43;;;;;;;10.77;6.68;;;;;;;;;;5073890;28;20136;-65
2021/06/30 13:58:09;;;;;;;7.13;6.47;;;;;;;;;;5080191;28;20049;-66
2021/06/30 14:00:35;;;;;;;9.13;7.28;;;;;;;;;;5073665;28;20044;-66
2021/06/30 14:03:02;;;;;;;9.32;7.75;;;;;;;;;;5081742;28;20044;-66
2021/06/30 14:05:30;;;;;;;7.63;5.80;;;;;;;;;;5075589;28;20425;-65
2021/06/30 14:07:56;;;;;;;9.88;7.68;;;;;;;;;;5081852;28;20048;-65
2021/06/30 14:10:23;;;;;;;10.93;7.15;;;;;;;;;;5070618;28;20045;-65
2021/06/30 14:12:49;;;;;;;8.98;7.38;;;;;;;;;;5081041;28;20041;-65
2021/06/30 14:15:15;;;;;;;9.63;6.43;;;;;;;;;;5081547;28;20136;-65
2021/06/30 14:17:42;;;;;;;11.82;8.63;;;;;;;;;;5070858;28;20048;-65
2021/06/30 14:20:10;;;;;;;9.77;8.00;;;;;;;;;;5078085;28;20040;-66
2021/06/30 14:22:37;;;;;;;11.30;7.22;;;;;;;;;;5073249;28;20051;-66
2021/06/30 14:25:04;;;;;;;8.02;7.00;;;;;;;;;;5083522;28;20071;-66
2021/06/30 14:27:30;;;;;;;7.90;6.22;;;;;;;;;;5076505;28;20040;-66
2021/06/30 14:29:58;;;;;;;7.97;5.47;;;;;;;;;;5080497;28;20051;-65
2021/06/30 14:32:26;;;;;;;7.80;5.40;;;;;;;;;;5077043;28;20459;-66
2021/06/30 14:34:53;;;;;;;8.80;5.60;;;;;;;;;;5082506;28;20094;-66
2021/06/30 14:37:20;;;;;;;9.98;7.28;;;;;;;;;;5067760;28;20064;-66
2021/06/30 14:39:47;;;;;;;7.97;6.50;;;;;;;;;;5076057;28;20511;-66